Time;durP1;ratioP1;P1;durP2;ratioP2;P2;SDS_P1;SDS_P2;PMS_P1;PMS_P2;Temp;Humidity;BMP_temperature;BMP_pressure;BME280_temperature;BME280_humidity;BME280_pressure;Samples;Min_cycle;Max_cycle;Signal;HPM_P1;HPM_P2
2021/06/23 00:02:11;;;;;;;;;;;;;;;-142.75;59.57;77655.06;5037155;28;19925;-78
2021/06/23 00:04:36;;;;;;;;;;;;;;;-142.75;59.80;77657.03;5054280;28;20293;-77
2021/06/23 00:07:01;;;;;;;;;;;;;;;-142.75;59.85;77657.03;5053533;28;19925;-78
2021/06/23 00:09:26;;;;;;;;;;;;;;;-142.75;60.10;77657.03;5053510;28;19978;-78
2021/06/23 00:11:53;;;;;;;;;;;;;;;-142.75;60.37;77662.94;5037787;28;19917;-78
2021/06/23 00:14:18;;;;;;;;;;;;;;;-142.75;60.49;77668.84;5037025;28;19932;-77
2021/06/23 00:16:44;;;;;;;;;;;;;;;-142.75;60.85;77672.78;5053278;28;19936;-78
2021/06/23 00:19:09;;;;;;;;;;;;;;;-142.75;60.85;77668.84;5053197;28;19974;-77
2021/06/23 00:21:34;;;;;;;;;;;;;;;-142.75;60.51;77668.84;5038294;28;19967;-78
2021/06/23 00:24:00;;;;;;;;;;;;;;;-142.75;60.59;77672.78;5045784;28;19921;-78
2021/06/23 00:26:25;;;;;;;;;;;;;;;-142.75;61.20;77676.72;5044591;28;19963;-78
2021/06/23 00:28:50;;;;;;;;;;;;;;;-142.75;61.56;77674.75;5039161;28;19970;-78
2021/06/23 00:31:16;;;;;;;;;;;;;;;-142.75;61.78;77678.69;5052829;28;19924;-78
2021/06/23 00:33:42;;;;;;;;;;;;;;;-142.75;61.47;77678.69;5053986;28;19921;-78
2021/06/23 00:36:07;;;;;;;;;;;;;;;-142.75;61.60;77684.59;5052894;28;20007;-77
2021/06/23 00:38:32;;;;;;;;;;;;;;;-142.75;61.30;77678.69;5053103;28;19986;-77
2021/06/23 00:40:58;;;;;;;;;;;;;;;-142.75;61.16;77678.69;5052685;28;19921;-78
2021/06/23 00:43:24;;;;;;;;;;;;;;;-142.75;61.18;77682.63;5035866;28;19920;-78
2021/06/23 00:45:49;;;;;;;;;;;;;;;-142.75;61.37;77684.59;5035973;28;19917;-78
2021/06/23 00:48:18;;;;;;;;;;;;;;;-142.75;61.64;77684.59;5053037;28;19921;-79
2021/06/23 00:50:44;;;;;;;;;;;;;;;-142.75;61.61;77692.47;5052570;28;19940;-77
2021/06/23 00:53:09;;;;;;;;;;;;;;;-142.75;61.49;77692.47;5053150;28;20367;-78
2021/06/23 00:55:34;;;;;;;;;;;;;;;-142.75;61.62;77686.56;5042125;28;19927;-78
2021/06/23 00:58:01;;;;;;;;;;;;;;;-142.75;61.91;77684.59;5038298;28;19924;-78
2021/06/23 01:00:28;;;;;;;;;;;;;;;-142.75;61.85;77692.47;5052329;28;20397;-78
2021/06/23 01:02:54;;;;;;;;;;;;;;;-142.75;61.85;77694.44;5053376;28;19927;-79
2021/06/23 01:05:19;;;;;;;;;;;;;;;-142.75;61.59;77698.38;5043135;28;19925;-78
2021/06/23 01:07:45;;;;;;;;;;;;;;;-142.75;61.62;77696.41;5052119;28;20011;-78
2021/06/23 01:10:11;;;;;;;;;;;;;;;-142.75;61.98;77694.44;5052398;28;19916;-78
2021/06/23 01:12:57;;;;;;;;;;;;;;;-142.75;61.83;77696.41;5052298;28;20393;-78
2021/06/23 01:15:24;;;;;;;;;;;;;;;-142.75;61.50;77694.44;5052584;28;19924;-78
2021/06/23 01:17:49;;;;;;;;;;;;;;;-142.75;61.61;77688.53;5052619;28;19992;-78
2021/06/23 01:20:14;;;;;;;;;;;;;;;-142.75;61.93;77696.41;5052098;28;20016;-78
2021/06/23 01:22:40;;;;;;;;;;;;;;;-142.75;62.03;77696.41;5052330;28;19924;-78
2021/06/23 01:25:08;;;;;;;;;;;;;;;-142.75;62.58;77696.41;5046806;28;19916;-78
2021/06/23 01:27:34;;;;;;;;;;;;;;;-142.75;62.64;77692.47;5046106;28;19917;-79
2021/06/23 01:29:59;;;;;;;;;;;;;;;-142.75;62.96;77696.41;5037565;28;19924;-77
2021/06/23 01:32:24;;;;;;;;;;;;;;;-142.75;62.78;77692.47;5039676;28;19920;-78
2021/06/23 01:34:49;;;;;;;;;;;;;;;-142.75;62.66;77692.47;5037412;28;19947;-78
2021/06/23 01:37:15;;;;;;;;;;;;;;;-142.75;62.72;77686.56;5051971;28;20377;-78
2021/06/23 01:39:40;;;;;;;;;;;;;;;-142.75;62.64;77692.47;5051582;28;19921;-77
2021/06/23 01:42:05;;;;;;;;;;;;;;;-142.75;62.94;77696.41;5051533;28;19995;-78
2021/06/23 01:44:30;;;;;;;;;;;;;;;-142.75;63.14;77694.44;5040514;28;20299;-77
2021/06/23 01:46:56;;;;;;;;;;;;;;;-142.75;62.74;77686.56;5038015;28;19916;-78
2021/06/23 01:49:22;;;;;;;;;;;;;;;-142.75;62.72;77688.53;5040185;28;19920;-77
2021/06/23 01:51:48;;;;;;;;;;;;;;;-142.75;62.77;77692.47;5045984;28;19917;-78
2021/06/23 01:54:13;;;;;;;;;;;;;;;-142.75;62.77;77692.47;5053342;28;19916;-79
2021/06/23 01:56:38;;;;;;;;;;;;;;;-142.75;62.56;77696.41;5044057;28;20341;-79
2021/06/23 01:59:03;;;;;;;;;;;;;;;-142.75;62.57;77696.41;5042172;28;20293;-78
2021/06/23 02:01:34;;;;;;;;;;;;;;;-142.75;62.89;77708.22;5041567;28;20404;-78
2021/06/23 02:04:09;;;;;;;;;;;;;;;-142.75;62.77;77704.28;5054085;28;20378;-78
2021/06/23 02:06:50;;;;;;;;;;;;;;;-142.75;63.56;77706.25;5049221;28;19920;-79
2021/06/23 02:09:34;;;;;;;;;;;;;;;-142.75;64.26;77714.13;5041324;28;19932;-80
2021/06/23 02:12:05;;;;;;;;;;;;;;;-142.75;65.08;77712.16;5040077;28;19923;-79
2021/06/23 02:14:37;;;;;;;;;;;;;;;-142.75;65.29;77716.09;5043269;28;19939;-78
2021/06/23 02:17:05;;;;;;;;;;;;;;;-142.75;65.74;77720.03;5055388;28;19931;-80
2021/06/23 02:19:31;;;;;;;;;;;;;;;-142.75;66.00;77720.03;5045827;28;19921;-80
2021/06/23 02:21:57;;;;;;;;;;;;;;;-142.75;65.76;77716.09;5054884;28;19966;-80
2021/06/23 02:24:22;;;;;;;;;;;;;;;-142.75;66.00;77710.19;5055379;28;19916;-79
2021/06/23 02:26:48;;;;;;;;;;;;;;;-142.75;66.90;77735.81;5056035;28;19967;-79
2021/06/23 02:29:13;;;;;;;;;;;;;;;-142.75;66.76;77747.63;5052779;28;20003;-78
2021/06/23 02:31:39;;;;;;;;;;;;;;;-142.75;66.83;77767.31;5050907;28;19920;-77
2021/06/23 02:34:08;;;;;;;;;;;;;;;-142.75;68.47;77783.06;5040134;28;20149;-76
2021/06/23 02:36:34;;;;;;;;;;;;;;;-142.75;68.51;77779.13;5041242;28;19916;-78
2021/06/23 02:39:00;;;;;;;;;;;;;;;-142.75;68.83;77773.22;5040039;28;19963;-79
2021/06/23 02:41:25;;;;;;;;;;;;;;;-142.75;68.75;77788.97;5052557;28;19924;-79
2021/06/23 02:43:50;;;;;;;;;;;;;;;-142.75;69.03;77790.94;5052448;28;20459;-77
2021/06/23 02:46:16;;;;;;;;;;;;;;;-142.75;69.23;77788.97;5051600;28;20376;-78
2021/06/23 02:48:41;;;;;;;;;;;;;;;-142.75;69.32;77790.94;5051800;28;19966;-77
2021/06/23 02:51:16;;;;;;;;;;;;;;;-142.75;69.13;77802.75;5051569;28;19916;-78
2021/06/23 02:53:41;;;;;;;;;;;;;;;-142.75;69.72;77804.72;5051378;28;20369;-78
2021/06/23 02:56:06;;;;;;;;;;;;;;;-142.75;69.66;77796.84;5038089;28;19917;-78
2021/06/23 02:58:32;;;;;;;;;;;;;;;-142.75;69.51;77790.94;5052539;28;20033;-77
2021/06/23 03:00:58;;;;;;;;;;;;;;;-142.75;69.76;77779.13;5040973;28;20397;-78
2021/06/23 03:03:24;;;;;;;;;;;;;;;-142.75;69.89;77783.06;5052409;28;19916;-78
2021/06/23 03:05:49;;;;;;;;;;;;;;;-142.75;69.35;77790.94;5040508;28;19916;-78
2021/06/23 03:08:14;;;;;;;;;;;;;;;-142.75;69.76;77790.94;5052463;28;19928;-78
2021/06/23 03:10:40;;;;;;;;;;;;;;;-142.75;69.50;77783.06;5052120;28;19916;-78
2021/06/23 03:13:05;;;;;;;;;;;;;;;-142.75;69.66;77775.19;5039243;28;20469;-78
2021/06/23 03:15:30;;;;;;;;;;;;;;;-142.75;69.55;77777.16;5040757;28;19916;-79
2021/06/23 03:17:55;;;;;;;;;;;;;;;-142.75;68.99;77773.22;5041283;28;19923;-77
2021/06/23 03:20:20;;;;;;;;;;;;;;;-142.75;68.74;77779.13;5051988;28;19920;-80
2021/06/23 03:22:46;;;;;;;;;;;;;;;-142.75;68.24;77806.69;5044067;28;20287;-79
2021/06/23 03:25:11;;;;;;;;;;;;;;;-142.75;68.30;77818.50;5053807;28;19974;-79
2021/06/23 03:27:37;;;;;;;;;;;;;;;-142.75;68.77;77822.44;5053337;28;19924;-80
2021/06/23 03:30:03;;;;;;;;;;;;;;;-142.75;69.23;77840.16;5043537;28;20346;-80
2021/06/23 03:32:29;;;;;;;;;;;;;;;-142.75;69.67;77840.16;5053371;28;19921;-80
2021/06/23 03:34:54;;;;;;;;;;;;;;;-142.75;69.88;77840.16;5053436;28;20399;-76
2021/06/23 03:37:19;;;;;;;;;;;;;;;-142.75;70.30;77842.13;5041921;28;19916;-80
2021/06/23 03:39:44;;;;;;;;;;;;;;;-142.75;70.89;77842.13;5046007;28;19924;-79
2021/06/23 03:42:10;;;;;;;;;;;;;;;-142.75;70.91;77832.28;5040009;28;20827;-80
2021/06/23 03:44:35;;;;;;;;;;;;;;;-142.75;70.95;77832.28;5045216;28;19917;-80
2021/06/23 03:47:02;;;;;;;;;;;;;;;-142.75;70.29;77848.03;5046353;28;20370;-79
2021/06/23 03:49:28;;;;;;;;;;;;;;;-142.75;68.74;77855.91;5052207;28;20382;-80
2021/06/23 03:51:53;;;;;;;;;;;;;;;-142.75;67.59;77865.75;5044377;28;19917;-77
2021/06/23 03:54:18;;;;;;;;;;;;;;;-142.75;67.59;77865.75;5052592;28;20367;-79
2021/06/23 03:56:43;;;;;;;;;;;;;;;-142.75;68.00;77863.78;5090654;22;19925;-79
2021/06/23 03:59:08;;;;;;;;;;;;;;;-142.75;68.04;77865.75;5082536;28;19946;-81
2021/06/23 04:01:34;;;;;;;;;;;;;;;-142.75;68.64;77861.81;5078218;28;19969;-81
2021/06/23 04:03:59;;;;;;;;;;;;;;;-142.75;69.47;77855.91;5080336;28;19923;-81
2021/06/23 04:06:24;;;;;;;;;;;;;;;-142.75;68.36;77861.81;5092538;28;19924;-79
2021/06/23 04:08:49;;;;;;;;;;;;;;;-142.75;68.60;77859.84;5092731;28;19916;-80
2021/06/23 04:11:14;;;;;;;;;;;;;;;-142.75;68.50;77853.94;5092381;28;19920;-80
2021/06/23 04:13:40;;;;;;;;;;;;;;;-142.75;68.03;77850.00;5091238;28;19970;-80
2021/06/23 04:16:05;;;;;;;;;;;;;;;-142.75;68.58;77848.03;5095424;28;19920;-80
2021/06/23 04:18:30;;;;;;;;;;;;;;;-142.75;68.52;77855.91;5081026;28;19923;-80
2021/06/23 04:20:55;;;;;;;;;;;;;;;-142.75;68.44;77861.81;5085499;28;20278;-80
2021/06/23 04:23:20;;;;;;;;;;;;;;;-142.75;68.55;77855.91;5092507;28;20401;-80
2021/06/23 04:25:46;;;;;;;;;;;;;;;-142.75;69.42;77857.88;5093764;28;19979;-81
2021/06/23 04:28:11;;;;;;;;;;;;;;;-142.75;69.75;77848.03;5096588;28;19916;-81
2021/06/23 04:30:36;;;;;;;;;;;;;;;-142.75;70.59;77830.31;5097732;28;19930;-81
2021/06/23 04:33:01;;;;;;;;;;;;;;;-142.75;70.85;77828.34;5086852;28;19916;-84
2021/06/23 04:35:27;;;;;;;;;;;;;;;-142.75;71.13;77818.50;5086306;28;20347;-78
2021/06/23 04:37:52;;;;;;;;;;;;;;;-142.75;70.23;77818.50;5096089;28;19973;-80
2021/06/23 04:40:17;;;;;;;;;;;;;;;-142.75;70.57;77804.72;5087054;28;19950;-80
2021/06/23 04:42:43;;;;;;;;;;;;;;;-142.75;70.75;77794.88;5098952;28;19927;-80
2021/06/23 04:45:10;;;;;;;;;;;;;;;-142.75;69.17;77802.75;5085044;28;20325;-81
2021/06/23 04:47:36;;;;;;;;;;;;;;;-142.75;67.81;77787.00;5087215;28;19920;-82
2021/06/23 04:50:01;;;;;;;;;;;;;;;-142.75;68.74;77775.19;5092537;28;19926;-80
2021/06/23 04:52:26;;;;;;;;;;;;;;;-142.75;68.22;77763.38;5103366;28;19916;-82
2021/06/23 04:54:52;;;;;;;;;;;;;;;-142.75;68.29;77731.88;5092437;28;19917;-81
2021/06/23 04:57:17;;;;;;;;;;;;;;;-142.75;68.76;77716.09;5111488;28;19916;-81
2021/06/23 04:59:42;;;;;;;;;;;;;;;-142.75;68.97;77702.31;5090268;28;19988;-83
2021/06/23 05:02:07;;;;;;;;;;;;;;;-142.75;68.52;77706.25;5100215;28;19920;-83
2021/06/23 05:04:34;;;;;;;;;;;;;;;-142.75;68.95;77698.38;5101197;28;19939;-81
2021/06/23 05:07:02;;;;;;;;;;;;;;;-142.75;66.30;77712.16;5091328;28;20008;-80
2021/06/23 05:09:27;;;;;;;;;;;;;;;-142.75;67.21;77698.38;5088006;28;19920;-79
2021/06/23 05:11:52;;;;;;;;;;;;;;;-142.75;66.27;77698.38;5100360;28;19962;-80
2021/06/23 05:14:17;;;;;;;;;;;;;;;-142.75;67.42;77686.56;5085774;28;19916;-79
2021/06/23 05:16:46;;;;;;;;;;;;;;;-142.75;66.53;77688.53;5100590;28;20381;-79
2021/06/23 05:19:11;;;;;;;;;;;;;;;-142.75;66.82;77680.66;5093789;28;19916;-79
2021/06/23 05:21:36;;;;;;;;;;;;;;;-142.75;66.76;77657.03;5096397;28;20392;-82
2021/06/23 05:24:02;;;;;;;;;;;;;;;-142.75;66.47;77680.66;5082154;28;19916;-79
2021/06/23 05:26:28;;;;;;;;;;;;;;;-142.75;64.56;77690.50;5097466;28;19916;-78
2021/06/23 05:28:53;;;;;;;;;;;;;;;-142.75;64.65;77692.47;5098334;28;19916;-80
2021/06/23 05:31:18;;;;;;;;;;;;;;;-142.75;66.17;77678.69;5099564;28;19923;-78
2021/06/23 05:33:43;;;;;;;;;;;;;;;-142.75;66.62;77670.81;5099855;28;19942;-79
2021/06/23 05:36:09;;;;;;;;;;;;;;;-142.75;64.22;77684.59;5097838;28;19916;-81
2021/06/23 05:38:34;;;;;;;;;;;;;;;-142.75;65.83;77672.78;5086651;28;19912;-79
2021/06/23 05:40:59;;;;;;;;;;;;;;;-142.75;66.82;77668.84;5096869;28;19928;-77
2021/06/23 05:43:24;;;;;;;;;;;;;;;-142.75;64.26;77682.63;5095989;28;19951;-78
2021/06/23 05:45:49;;;;;;;;;;;;;;;-142.75;65.68;77680.66;5098447;28;20310;-78
2021/06/23 05:48:15;;;;;;;;;;;;;;;-142.75;65.99;77676.72;5098441;28;19920;-79
2021/06/23 05:50:41;;;;;;;;;;;;;;;-142.75;65.72;77668.84;5095506;28;19931;-79
2021/06/23 05:53:07;;;;;;;;;;;;;;;-142.75;65.67;77653.09;5095122;28;20380;-79
2021/06/23 05:55:32;;;;;;;;;;;;;;;-142.75;64.98;77629.47;5083692;28;19917;-80
2021/06/23 05:57:57;;;;;;;;;;;;;;;-142.75;64.56;77609.78;5077821;28;19916;-79
2021/06/23 06:00:24;;;;;;;;;;;;;;;-142.75;65.31;77603.88;5096404;28;20356;-80
2021/06/23 06:02:49;;;;;;;;;;;;;;;-142.75;64.48;77609.78;5075927;28;19920;-81
2021/06/23 06:05:15;;;;;;;;;;;;;;;-142.75;64.69;77603.88;5077360;28;20408;-80
2021/06/23 06:07:40;;;;;;;;;;;;;;;-142.75;65.02;77578.28;5095248;28;20389;-81
2021/06/23 06:10:06;;;;;;;;;;;;;;;-142.75;63.78;77584.19;5096932;28;19916;-80
2021/06/23 06:12:31;;;;;;;;;;;;;;;-142.75;64.81;77582.22;5097843;28;19920;-80
2021/06/23 06:14:56;;;;;;;;;;;;;;;-142.75;64.55;77564.50;5081172;28;19923;-81
2021/06/23 06:17:21;;;;;;;;;;;;;;;-142.75;63.93;77556.63;5096659;28;19963;-80
2021/06/23 06:19:46;;;;;;;;;;;;;;;-142.75;63.04;77536.94;5096646;28;20381;-80
2021/06/23 06:22:12;;;;;;;;;;;;;;;-142.75;63.99;77534.97;5092143;28;20007;-80
2021/06/23 06:24:37;;;;;;;;;;;;;;;-142.75;64.16;77533.00;5094359;28;19969;-80
2021/06/23 06:27:02;;;;;;;;;;;;;;;-142.75;62.61;77536.94;5087116;28;19983;-79
2021/06/23 06:29:27;;;;;;;;;;;;;;;-142.75;64.71;77517.25;5094258;28;19923;-81
2021/06/23 06:31:53;;;;;;;;;;;;;;;-142.75;64.75;77503.47;5093027;28;19916;-80
2021/06/23 06:34:18;;;;;;;;;;;;;;;-142.75;64.36;77485.75;5085574;28;19916;-81
2021/06/23 06:36:43;;;;;;;;;;;;;;;-142.75;63.95;77456.22;5083304;28;20419;-81
2021/06/23 06:39:08;;;;;;;;;;;;;;;-142.75;63.23;77448.34;5094528;28;19916;-80
2021/06/23 06:41:34;;;;;;;;;;;;;;;-142.75;62.75;77430.59;5088554;28;19921;-78
2021/06/23 06:43:59;;;;;;;;;;;;;;;-142.75;62.27;77401.06;5092671;28;20738;-81
2021/06/23 06:46:25;;;;;;;;;;;;;;;-142.75;61.76;77377.44;5096692;28;20332;-81
2021/06/23 06:48:50;;;;;;;;;;;;;;;-142.75;61.14;77330.19;5095951;28;19916;-80
2021/06/23 06:51:16;;;;;;;;;;;;;;;-142.75;60.53;77284.91;5094760;28;19923;-80
2021/06/23 06:53:41;;;;;;;;;;;;;;;-142.75;59.33;77251.44;5095780;28;20377;-80
2021/06/23 06:56:06;;;;;;;;;;;;;;;-142.75;54.70;77243.56;5093804;28;19916;-82
2021/06/23 06:58:31;;;;;;;;;;;;;;;-142.75;58.32;77212.06;5094251;28;19927;-79
2021/06/23 07:00:56;;;;;;;;;;;;;;;-142.75;57.46;77188.44;5093078;28;20447;-79
2021/06/23 07:03:22;;;;;;;;;;;;;;;-142.75;56.45;77170.72;5094553;28;19920;-81
2021/06/23 07:05:47;;;;;;;;;;;;;;;-142.75;55.48;77172.69;5083137;28;20266;-80
2021/06/23 07:08:12;;;;;;;;;;;;;;;-142.75;56.25;77196.31;5075460;28;19965;-79
2021/06/23 07:10:37;;;;;;;;;;;;;;;-142.75;56.40;77200.25;5093677;28;19923;-79
2021/06/23 07:13:02;;;;;;;;;;;;;;;-142.75;56.88;77200.25;5095133;28;20308;-80
2021/06/23 07:15:28;;;;;;;;;;;;;;;-142.75;57.17;77198.28;5094062;28;20428;-79
2021/06/23 07:17:53;;;;;;;;;;;;;;;-142.75;55.82;77208.13;5086821;28;19916;-79
2021/06/23 07:20:18;;;;;;;;;;;;;;;-142.75;55.66;77216.00;5095218;28;20446;-80
2021/06/23 07:22:44;;;;;;;;;;;;;;;-142.75;55.79;77210.09;5077522;28;19920;-78
2021/06/23 07:25:09;;;;;;;;;;;;;;;-142.75;54.32;77200.25;5093972;28;19924;-80
2021/06/23 07:27:34;;;;;;;;;;;;;;;-142.75;55.52;77192.38;5093970;28;19941;-79
2021/06/23 07:30:00;;;;;;;;;;;;;;;-142.75;54.70;77190.41;5093035;28;19927;-81
2021/06/23 07:32:35;;;;;;;;;;;;;;;-142.75;55.38;77196.31;5083962;28;19955;-79
2021/06/23 07:37:44;;;;;;;;;;;;;;;-142.75;56.23;77196.31;5092199;28;19931;-79
2021/06/23 07:40:10;;;;;;;;;;;;;;;-142.75;50.47;77219.94;5091990;28;19916;-78
2021/06/23 07:42:35;;;;;;;;;;;;;;;-142.75;55.15;77229.78;5092745;28;19931;-80
2021/06/23 07:45:03;;;;;;;;;;;;;;;-142.75;56.77;77227.81;5091736;28;20373;-79
2021/06/23 07:47:32;;;;;;;;;;;;;;;-142.75;55.22;77225.84;5090833;28;19927;-79
2021/06/23 07:49:58;;;;;;;;;;;;;;;-142.75;54.51;77231.75;5091353;28;21231;-80
2021/06/23 07:56:06;;;;;;;;;;;;;;;-142.75;56.22;77241.59;5091616;28;19969;-80
2021/06/23 08:09:01;;;;;;;;;;;;;;;-142.75;55.93;77217.97;5091079;28;19924;-80
2021/06/23 08:11:38;;;;;;;;;;;;;;;-142.75;55.73;77216.00;5082547;28;19920;-78
2021/06/23 08:14:04;;;;;;;;;;;;;;;-142.75;54.61;77216.00;5088961;28;19923;-79
2021/06/23 08:16:30;;;;;;;;;;;;;;;-142.75;55.92;77219.94;5092606;28;20370;-78
2021/06/23 08:18:55;;;;;;;;;;;;;;;-142.75;56.37;77212.06;5082317;28;20015;-80
2021/06/23 08:21:21;;;;;;;;;;;;;;;-142.75;56.54;77200.25;5087533;28;20010;-80
2021/06/23 08:23:46;;;;;;;;;;;;;;;-142.75;55.82;77200.25;5096103;28;19920;-80
2021/06/23 08:26:11;;;;;;;;;;;;;;;-142.75;55.26;77196.31;5081429;28;19916;-79
2021/06/23 08:28:36;;;;;;;;;;;;;;;-142.75;54.40;77214.03;5095393;28;19916;-81
2021/06/23 08:31:02;;;;;;;;;;;;;;;-142.75;54.49;77210.09;5095457;28;19999;-82
2021/06/23 08:33:27;;;;;;;;;;;;;;;-142.75;53.97;77217.97;5088653;28;19916;-79
2021/06/23 08:35:53;;;;;;;;;;;;;;;-142.75;54.73;77208.13;5086992;28;20296;-80
2021/06/23 08:38:18;;;;;;;;;;;;;;;-142.75;55.25;77208.13;5094188;28;19916;-80
2021/06/23 08:40:44;;;;;;;;;;;;;;;-142.75;50.78;77212.06;5096007;28;20960;-81
2021/06/23 08:43:12;;;;;;;;;;;;;;;-142.75;53.00;77206.16;5095696;28;19919;-80
2021/06/23 08:45:37;;;;;;;;;;;;;;;-142.75;53.54;77186.47;5096458;28;19974;-79
2021/06/23 08:48:03;;;;;;;;;;;;;;;-142.75;50.96;77170.72;5091765;28;19916;-79
2021/06/23 08:50:28;;;;;;;;;;;;;;;-142.75;51.04;77168.75;5091211;28;19972;-80
2021/06/23 08:52:53;;;;;;;;;;;;;;;-142.75;50.84;77121.50;5096237;28;19916;-80
2021/06/23 08:55:22;;;;;;;;;;;;;;;-142.75;52.88;77062.44;5096891;28;19931;-80
2021/06/23 08:57:48;;;;;;;;;;;;;;;-142.75;51.96;76960.06;5096766;28;20373;-81
2021/06/23 09:00:14;;;;;;;;;;;;;;;-142.75;48.36;76916.75;5096766;28;19927;-80
2021/06/23 09:02:40;;;;;;;;;;;;;;;-142.75;49.69;76877.38;5096417;28;19952;-80
2021/06/23 09:05:09;;;;;;;;;;;;;;;-142.75;47.67;76861.63;5078637;28;20381;-82
2021/06/23 09:07:35;;;;;;;;;;;;;;;-142.75;48.42;76855.72;5095912;28;20289;-80
2021/06/23 09:10:00;;;;;;;;;;;;;;;-142.75;44.53;76847.84;5095860;28;20363;-80
2021/06/23 09:12:25;;;;;;;;;;;;;;;-142.75;47.88;76822.25;5081914;28;19974;-80
2021/06/23 09:14:51;;;;;;;;;;;;;;;-142.75;48.65;76830.13;5089555;28;19916;-80
2021/06/23 09:17:17;;;;;;;;;;;;;;;-142.75;47.94;76812.41;5095366;28;19920;-79
2021/06/23 09:19:46;;;;;;;;;;;;;;;-142.75;48.06;76812.41;5095197;28;20336;-80
2021/06/23 09:22:30;;;;;;;;;;;;;;;-142.75;45.19;76806.50;5095817;28;19927;-79
2021/06/23 09:24:56;;;;;;;;;;;;;;;-142.75;45.26;76834.06;5095621;28;19920;-80
2021/06/23 09:27:22;;;;;;;;;;;;;;;-142.75;42.74;76950.22;5083866;28;20000;-79
2021/06/23 09:29:50;;;;;;;;;;;;;;;-142.75;45.14;76962.03;5094714;28;19951;-78
2021/06/23 09:32:16;;;;;;;;;;;;;;;-142.75;48.25;76983.69;5086751;28;19927;-79
2021/06/23 09:34:59;;;;;;;;;;;;;;;-142.75;49.93;76956.13;5086072;28;19916;-78
2021/06/23 09:37:28;;;;;;;;;;;;;;;-142.75;50.01;76932.50;5094394;28;20114;-79
2021/06/23 09:40:14;;;;;;;;;;;;;;;-142.75;49.36;76924.63;5094883;28;19916;-80
2021/06/23 09:42:41;;;;;;;;;;;;;;;-142.75;48.66;76924.63;5094134;28;19955;-80
2021/06/23 09:45:08;;;;;;;;;;;;;;;-142.75;49.48;76952.19;5092317;28;19939;-78
2021/06/23 09:47:35;;;;;;;;;;;;;;;-142.75;48.83;76960.06;5088398;28;19974;-79
2021/06/23 09:50:00;;;;;;;;;;;;;;;-142.75;49.42;76995.50;5094050;28;19920;-78
2021/06/23 09:52:26;;;;;;;;;;;;;;;-142.75;46.37;77082.13;5081173;28;20374;-79
2021/06/23 09:54:53;;;;;;;;;;;;;;;-142.75;50.21;77123.47;5094609;28;19916;-79
2021/06/23 09:57:18;;;;;;;;;;;;;;;-142.75;48.85;77145.13;5110381;22;20406;-82
2021/06/23 09:59:47;;;;;;;;;;;;;;;-142.75;49.76;77208.13;5058302;28;19920;-83
2021/06/23 10:02:32;;;;;;;;;;;;;;;-142.75;50.95;77267.19;5055832;28;19916;-83
2021/06/23 10:04:59;;;;;;;;;;;;;;;-142.75;50.86;77267.19;5058764;28;19978;-79
2021/06/23 10:07:44;;;;;;;;;;;;;;;-142.75;49.76;77286.88;5067027;28;20297;-78
2021/06/23 10:10:10;;;;;;;;;;;;;;;-142.75;51.55;77271.13;5068524;28;19917;-80
2021/06/23 10:12:36;;;;;;;;;;;;;;;-142.75;48.56;77267.19;5057377;28;19916;-81
2021/06/23 10:15:01;;;;;;;;;;;;;;;-142.75;50.56;77259.31;5072536;28;20396;-80
2021/06/23 10:17:27;;;;;;;;;;;;;;;-142.75;49.98;77259.31;5058038;28;20003;-82
2021/06/23 10:19:53;;;;;;;;;;;;;;;-142.75;50.83;77255.38;5068031;28;19921;-79
2021/06/23 10:22:19;;;;;;;;;;;;;;;-142.75;51.04;77221.91;5068385;28;20440;-80
2021/06/23 10:24:46;;;;;;;;;;;;;;;-142.75;48.67;77200.25;5059095;28;19916;-81
2021/06/23 10:27:11;;;;;;;;;;;;;;;-142.75;49.57;77192.38;5064465;28;19933;-80
2021/06/23 10:29:38;;;;;;;;;;;;;;;-142.75;49.36;77255.38;5057033;28;19916;-80
2021/06/23 10:32:04;;;;;;;;;;;;;;;-142.75;50.64;77251.44;5066898;28;20401;-81
2021/06/23 10:34:29;;;;;;;;;;;;;;;-142.75;50.80;77217.97;5064227;28;20309;-79
2021/06/23 10:36:55;;;;;;;;;;;;;;;-142.75;49.38;77225.84;5064439;28;19931;-79
2021/06/23 10:39:21;;;;;;;;;;;;;;;-142.75;49.63;77216.00;5055343;28;19916;-79
2021/06/23 10:41:48;;;;;;;;;;;;;;;-142.75;49.94;77208.13;5056073;28;19924;-79
2021/06/23 10:44:18;;;;;;;;;;;;;;;-142.75;51.33;77192.38;5065920;28;19927;-80
2021/06/23 10:46:44;;;;;;;;;;;;;;;-142.75;49.69;77172.69;5064998;28;19924;-81
2021/06/23 10:49:11;;;;;;;;;;;;;;;-142.75;48.66;77164.81;5055454;28;19963;-83
2021/06/23 10:51:36;;;;;;;;;;;;;;;-142.75;48.58;77186.47;5054748;28;20447;-81
2021/06/23 10:54:21;;;;;;;;;;;;;;;-142.75;51.05;77219.94;5056093;28;19924;-80
2021/06/23 10:56:47;;;;;;;;;;;;;;;-142.75;49.49;77192.38;5056618;28;19916;-81
2021/06/23 10:59:32;;;;;;;;;;;;;;;-142.75;50.46;77168.75;5063235;28;19917;-80
2021/06/23 11:02:13;;;;;;;;;;;;;;;-142.75;52.28;77141.19;5055937;28;19917;-79
2021/06/23 11:05:02;;;;;;;;;;;;;;;-142.75;50.55;77147.09;5065466;28;19916;-79
2021/06/23 11:07:34;;;;;;;;;;;;;;;-142.75;51.33;77156.94;5057509;28;20386;-81
2021/06/23 11:10:12;;;;;;;;;;;;;;;-142.75;52.82;77133.31;5053950;28;19924;-79
2021/06/23 11:12:46;;;;;;;;;;;;;;;-142.75;52.92;77127.41;5053901;28;20381;-81
2021/06/23 11:15:14;;;;;;;;;;;;;;;-142.75;51.58;77127.41;5064698;28;19924;-81
2021/06/23 11:17:39;;;;;;;;;;;;;;;-142.75;48.78;77172.69;5055724;28;20003;-79
2021/06/23 11:20:24;;;;;;;;;;;;;;;-142.75;51.34;77176.63;5062441;28;20566;-79
2021/06/23 11:22:50;;;;;;;;;;;;;;;-142.75;50.42;77143.16;5066009;28;19983;-80
2021/06/23 11:25:22;;;;;;;;;;;;;;;-142.75;49.67;77149.06;5056465;28;20346;-79
2021/06/23 11:28:07;;;;;;;;;;;;;;;-142.75;52.37;77113.63;5062465;28;20025;-81
2021/06/23 11:30:32;;;;;;;;;;;;;;;-142.75;52.06;77072.28;5054705;28;19952;-78
2021/06/23 11:32:57;;;;;;;;;;;;;;;-142.75;47.97;77028.97;5052903;28;19916;-82
2021/06/23 11:35:22;;;;;;;;;;;;;;;-142.75;48.66;77030.94;5065369;28;20305;-80
2021/06/23 11:37:47;;;;;;;;;;;;;;;-142.75;50.76;76999.44;5054789;28;19948;-78
2021/06/23 11:40:14;;;;;;;;;;;;;;;-142.75;48.99;76975.81;5053884;28;19925;-80
2021/06/23 11:42:39;;;;;;;;;;;;;;;-142.75;48.25;76995.50;5055174;28;19966;-80
2021/06/23 11:45:05;;;;;;;;;;;;;;;-142.75;48.31;76997.47;5054295;28;20294;-81
2021/06/23 11:47:30;;;;;;;;;;;;;;;-142.75;49.25;76960.06;5059557;28;20436;-77
2021/06/23 11:49:56;;;;;;;;;;;;;;;-142.75;49.45;76928.56;5052962;28;19931;-80
2021/06/23 11:52:21;;;;;;;;;;;;;;;-142.75;49.37;76904.94;5055698;28;19916;-80
2021/06/23 11:54:46;;;;;;;;;;;;;;;-142.75;48.78;76887.22;5063899;28;19924;-81
2021/06/23 11:57:11;;;;;;;;;;;;;;;-142.75;46.29;76950.22;5068356;28;20007;-81
2021/06/23 11:59:43;;;;;;;;;;;;;;;-142.75;50.13;76967.94;5058914;28;20297;-80
2021/06/23 12:02:08;;;;;;;;;;;;;;;-142.75;50.50;76979.75;5058386;28;19924;-83
2021/06/23 12:04:33;;;;;;;;;;;;;;;-142.75;51.15;77005.34;5063088;28;19920;-79
2021/06/23 12:06:58;;;;;;;;;;;;;;;-142.75;50.96;77021.09;5068768;28;20027;-79
2021/06/23 12:09:23;;;;;;;;;;;;;;;-142.75;50.72;77038.81;5060401;28;19917;-80
2021/06/23 12:11:49;;;;;;;;;;;;;;;-142.75;51.56;77064.41;5059547;28;19921;-79
2021/06/23 12:14:14;;;;;;;;;;;;;;;-142.75;53.00;77078.19;5058928;28;19916;-80
2021/06/23 12:16:39;;;;;;;;;;;;;;;-142.75;52.33;77078.19;5069669;28;19924;-80
2021/06/23 12:19:04;;;;;;;;;;;;;;;-142.75;52.43;77078.19;5059487;28;19917;-80
2021/06/23 12:21:30;;;;;;;;;;;;;;;-142.75;51.72;77086.06;5063059;28;20377;-79
2021/06/23 12:23:55;;;;;;;;;;;;;;;-142.75;52.53;77084.09;5059081;28;19920;-80
2021/06/23 12:26:22;;;;;;;;;;;;;;;-142.75;52.52;77078.19;5064804;28;20404;-78
2021/06/23 12:28:48;;;;;;;;;;;;;;;-142.75;53.46;77056.53;5067543;28;19916;-79
2021/06/23 12:31:13;;;;;;;;;;;;;;;-142.75;51.68;77044.72;5064404;28;19927;-78
2021/06/23 12:33:38;;;;;;;;;;;;;;;-142.75;52.15;77036.84;5063817;28;19924;-78
2021/06/23 12:36:04;;;;;;;;;;;;;;;-142.75;51.42;76999.44;5067446;28;19970;-80
2021/06/23 12:38:29;;;;;;;;;;;;;;;-142.75;50.94;76964.00;5058385;28;19942;-81
2021/06/23 12:40:55;;;;;;;;;;;;;;;-142.75;50.44;76932.50;5055712;28;19925;-79
2021/06/23 12:43:20;;;;;;;;;;;;;;;-142.75;49.79;76901.00;5057339;28;19917;-79